sensor_id;sensor_type;location;lat;lon;timestamp;temperature;humidity
52125;DHT22;38119;52.710;6.398;2024-02-21T00:00:47;9.60;99.90
52125;DHT22;38119;52.710;6.398;2024-02-21T00:03:13;9.60;99.90
52125;DHT22;38119;52.710;6.398;2024-02-21T00:05:39;9.60;99.90
52125;DHT22;38119;52.710;6.398;2024-02-21T00:08:05;9.60;99.90
52125;DHT22;38119;52.710;6.398;2024-02-21T00:10:30;9.60;99.90
52125;DHT22;38119;52.710;6.398;2024-02-21T00:13:00;9.50;99.90
52125;DHT22;38119;52.710;6.398;2024-02-21T00:15:26;9.60;99.90
52125;DHT22;38119;52.710;6.398;2024-02-21T00:17:52;9.60;99.90
52125;DHT22;38119;52.710;6.398;2024-02-21T00:20:18;9.50;99.90
52125;DHT22;38119;52.710;6.398;2024-02-21T00:22:44;9.60;99.90
52125;DHT22;38119;52.710;6.398;2024-02-21T00:25:10;9.60;99.90
52125;DHT22;38119;52.710;6.398;2024-02-21T00:27:36;9.60;99.90
52125;DHT22;38119;52.710;6.398;2024-02-21T00:30:02;9.60;99.90
52125;DHT22;38119;52.710;6.398;2024-02-21T00:32:28;9.60;99.90
52125;DHT22;38119;52.710;6.398;2024-02-21T00:34:53;9.60;99.90
52125;DHT22;38119;52.710;6.398;2024-02-21T00:37:19;9.60;99.90
52125;DHT22;38119;52.710;6.398;2024-02-21T00:39:45;9.60;99.90
52125;DHT22;38119;52.710;6.398;2024-02-21T00:42:10;9.50;99.90
52125;DHT22;38119;52.710;6.398;2024-02-21T00:44:36;9.50;99.90
52125;DHT22;38119;52.710;6.398;2024-02-21T00:47:01;9.50;99.90
52125;DHT22;38119;52.710;6.398;2024-02-21T00:49:27;9.50;99.90
52125;DHT22;38119;52.710;6.398;2024-02-21T00:51:53;9.40;99.90
52125;DHT22;38119;52.710;6.398;2024-02-21T00:54:18;9.50;99.90
52125;DHT22;38119;52.710;6.398;2024-02-21T00:56:44;9.50;99.90
52125;DHT22;38119;52.710;6.398;2024-02-21T00:59:10;9.40;99.90
52125;DHT22;38119;52.710;6.398;2024-02-21T01:01:35;9.40;99.90
52125;DHT22;38119;52.710;6.398;2024-02-21T01:04:01;9.40;99.90
52125;DHT22;38119;52.710;6.398;2024-02-21T01:06:27;9.40;99.90
52125;DHT22;38119;52.710;6.398;2024-02-21T01:08:52;9.30;99.90
52125;DHT22;38119;52.710;6.398;2024-02-21T01:11:18;9.30;99.90
52125;DHT22;38119;52.710;6.398;2024-02-21T01:13:44;9.30;99.90
52125;DHT22;38119;52.710;6.398;2024-02-21T01:16:10;9.30;99.90
52125;DHT22;38119;52.710;6.398;2024-02-21T01:18:39;9.30;99.90
52125;DHT22;38119;52.710;6.398;2024-02-21T01:21:05;9.30;99.90
52125;DHT22;38119;52.710;6.398;2024-02-21T01:23:36;9.30;99.90
52125;DHT22;38119;52.710;6.398;2024-02-21T01:26:03;9.30;99.90
52125;DHT22;38119;52.710;6.398;2024-02-21T01:28:29;9.30;99.90
52125;DHT22;38119;52.710;6.398;2024-02-21T01:30:56;9.30;99.90
52125;DHT22;38119;52.710;6.398;2024-02-21T01:33:21;9.30;99.90
52125;DHT22;38119;52.710;6.398;2024-02-21T01:35:47;9.30;99.90
52125;DHT22;38119;52.710;6.398;2024-02-21T01:38:13;9.30;99.90
52125;DHT22;38119;52.710;6.398;2024-02-21T01:40:38;9.30;99.90
52125;DHT22;38119;52.710;6.398;2024-02-21T01:43:15;9.20;99.90
52125;DHT22;38119;52.710;6.398;2024-02-21T01:45:41;9.20;99.90
52125;DHT22;38119;52.710;6.398;2024-02-21T01:48:07;9.30;99.90
52125;DHT22;38119;52.710;6.398;2024-02-21T01:50:33;9.30;99.90
52125;DHT22;38119;52.710;6.398;2024-02-21T01:52:59;9.30;99.90
52125;DHT22;38119;52.710;6.398;2024-02-21T01:55:25;9.30;99.90
52125;DHT22;38119;52.710;6.398;2024-02-21T01:57:51;9.30;99.90
52125;DHT22;38119;52.710;6.398;2024-02-21T02:00:17;9.30;99.90
52125;DHT22;38119;52.710;6.398;2024-02-21T02:02:44;9.30;99.90
52125;DHT22;38119;52.710;6.398;2024-02-21T02:05:11;9.30;99.90
52125;DHT22;38119;52.710;6.398;2024-02-21T02:07:37;9.20;99.90
52125;DHT22;38119;52.710;6.398;2024-02-21T02:10:03;9.30;99.90
52125;DHT22;38119;52.710;6.398;2024-02-21T02:12:29;9.20;99.90
52125;DHT22;38119;52.710;6.398;2024-02-21T02:15:02;9.20;99.90
52125;DHT22;38119;52.710;6.398;2024-02-21T02:17:30;9.20;99.90
52125;DHT22;38119;52.710;6.398;2024-02-21T02:19:56;9.20;99.90
52125;DHT22;38119;52.710;6.398;2024-02-21T02:22:24;9.20;99.90
52125;DHT22;38119;52.710;6.398;2024-02-21T02:24:51;9.10;99.90
52125;DHT22;38119;52.710;6.398;2024-02-21T02:27:16;9.10;99.90
52125;DHT22;38119;52.710;6.398;2024-02-21T02:29:42;9.10;99.90
52125;DHT22;38119;52.710;6.398;2024-02-21T02:32:08;9.00;99.90
52125;DHT22;38119;52.710;6.398;2024-02-21T02:34:34;9.00;99.90
52125;DHT22;38119;52.710;6.398;2024-02-21T02:36:59;9.00;99.90
52125;DHT22;38119;52.710;6.398;2024-02-21T02:39:25;9.00;99.90
52125;DHT22;38119;52.710;6.398;2024-02-21T02:41:50;9.00;99.90
52125;DHT22;38119;52.710;6.398;2024-02-21T02:44:16;8.90;99.90
52125;DHT22;38119;52.710;6.398;2024-02-21T02:46:42;8.90;99.90
52125;DHT22;38119;52.710;6.398;2024-02-21T02:49:08;8.90;99.90
52125;DHT22;38119;52.710;6.398;2024-02-21T02:51:34;8.90;99.90
52125;DHT22;38119;52.710;6.398;2024-02-21T02:54:00;8.90;99.90
52125;DHT22;38119;52.710;6.398;2024-02-21T02:56:25;8.90;99.90
52125;DHT22;38119;52.710;6.398;2024-02-21T02:58:51;8.90;99.90
52125;DHT22;38119;52.710;6.398;2024-02-21T03:01:16;8.90;99.90
52125;DHT22;38119;52.710;6.398;2024-02-21T03:03:42;8.90;99.90
52125;DHT22;38119;52.710;6.398;2024-02-21T03:06:08;8.90;99.90
52125;DHT22;38119;52.710;6.398;2024-02-21T03:08:33;8.90;99.90
52125;DHT22;38119;52.710;6.398;2024-02-21T03:10:59;8.80;99.90
52125;DHT22;38119;52.710;6.398;2024-02-21T03:13:25;8.90;99.90
52125;DHT22;38119;52.710;6.398;2024-02-21T03:15:51;8.90;99.90
52125;DHT22;38119;52.710;6.398;2024-02-21T03:18:17;8.90;99.90
52125;DHT22;38119;52.710;6.398;2024-02-21T03:20:42;8.80;99.90
52125;DHT22;38119;52.710;6.398;2024-02-21T03:23:08;8.80;99.90
52125;DHT22;38119;52.710;6.398;2024-02-21T03:25:33;8.80;99.90
52125;DHT22;38119;52.710;6.398;2024-02-21T03:27:59;8.90;99.90
52125;DHT22;38119;52.710;6.398;2024-02-21T03:30:25;8.80;99.90
52125;DHT22;38119;52.710;6.398;2024-02-21T03:32:51;8.80;99.90
52125;DHT22;38119;52.710;6.398;2024-02-21T03:35:16;8.80;99.90
52125;DHT22;38119;52.710;6.398;2024-02-21T03:37:44;8.90;99.90
52125;DHT22;38119;52.710;6.398;2024-02-21T03:40:10;8.80;99.90
52125;DHT22;38119;52.710;6.398;2024-02-21T03:42:36;8.90;99.90
52125;DHT22;38119;52.710;6.398;2024-02-21T03:45:02;8.90;99.90
52125;DHT22;38119;52.710;6.398;2024-02-21T03:47:29;8.90;99.90
52125;DHT22;38119;52.710;6.398;2024-02-21T03:49:54;8.90;99.90
52125;DHT22;38119;52.710;6.398;2024-02-21T03:52:20;8.90;99.90
52125;DHT22;38119;52.710;6.398;2024-02-21T03:54:45;8.90;99.90
52125;DHT22;38119;52.710;6.398;2024-02-21T03:57:11;8.90;99.90
52125;DHT22;38119;52.710;6.398;2024-02-21T03:59:37;8.90;99.90
52125;DHT22;38119;52.710;6.398;2024-02-21T04:02:05;8.90;99.90
52125;DHT22;38119;52.710;6.398;2024-02-21T04:04:34;8.90;99.90
52125;DHT22;38119;52.710;6.398;2024-02-21T04:07:00;8.90;99.90
52125;DHT22;38119;52.710;6.398;2024-02-21T04:09:25;8.90;99.90
52125;DHT22;38119;52.710;6.398;2024-02-21T04:11:51;8.90;99.90
52125;DHT22;38119;52.710;6.398;2024-02-21T04:14:17;8.90;99.90
52125;DHT22;38119;52.710;6.398;2024-02-21T04:16:42;8.90;99.90
52125;DHT22;38119;52.710;6.398;2024-02-21T04:19:08;8.90;99.90
52125;DHT22;38119;52.710;6.398;2024-02-21T04:21:34;8.90;99.90
52125;DHT22;38119;52.710;6.398;2024-02-21T04:24:00;8.90;99.90
52125;DHT22;38119;52.710;6.398;2024-02-21T04:26:27;8.60;99.90
52125;DHT22;38119;52.710;6.398;2024-02-21T04:28:52;8.90;99.90
52125;DHT22;38119;52.710;6.398;2024-02-21T04:31:18;8.90;99.90
52125;DHT22;38119;52.710;6.398;2024-02-21T04:33:44;8.90;99.90
52125;DHT22;38119;52.710;6.398;2024-02-21T04:36:09;8.90;99.90
52125;DHT22;38119;52.710;6.398;2024-02-21T04:38:35;8.90;99.90
52125;DHT22;38119;52.710;6.398;2024-02-21T04:41:01;8.90;99.90
52125;DHT22;38119;52.710;6.398;2024-02-21T04:43:26;8.90;99.90
52125;DHT22;38119;52.710;6.398;2024-02-21T04:45:52;8.90;99.90
52125;DHT22;38119;52.710;6.398;2024-02-21T04:48:19;8.90;99.90
52125;DHT22;38119;52.710;6.398;2024-02-21T04:50:46;8.90;99.90
52125;DHT22;38119;52.710;6.398;2024-02-21T04:53:12;9.00;99.90
52125;DHT22;38119;52.710;6.398;2024-02-21T04:55:37;9.00;99.90
52125;DHT22;38119;52.710;6.398;2024-02-21T04:58:03;9.00;99.90
52125;DHT22;38119;52.710;6.398;2024-02-21T05:00:29;9.00;99.90
52125;DHT22;38119;52.710;6.398;2024-02-21T05:02:55;9.00;99.90
52125;DHT22;38119;52.710;6.398;2024-02-21T05:05:20;9.00;99.90
52125;DHT22;38119;52.710;6.398;2024-02-21T05:07:46;9.00;99.90
52125;DHT22;38119;52.710;6.398;2024-02-21T05:10:12;9.00;99.90
52125;DHT22;38119;52.710;6.398;2024-02-21T05:12:37;9.00;99.90
52125;DHT22;38119;52.710;6.398;2024-02-21T05:15:03;9.00;99.90
52125;DHT22;38119;52.710;6.398;2024-02-21T05:17:29;9.00;99.90
52125;DHT22;38119;52.710;6.398;2024-02-21T05:19:55;9.00;99.90
52125;DHT22;38119;52.710;6.398;2024-02-21T05:22:20;9.00;99.90
52125;DHT22;38119;52.710;6.398;2024-02-21T05:24:46;9.00;99.90
52125;DHT22;38119;52.710;6.398;2024-02-21T05:27:11;9.00;99.90
52125;DHT22;38119;52.710;6.398;2024-02-21T05:29:37;9.00;99.90
52125;DHT22;38119;52.710;6.398;2024-02-21T05:32:02;9.00;99.90
52125;DHT22;38119;52.710;6.398;2024-02-21T05:34:28;9.00;99.90
52125;DHT22;38119;52.710;6.398;2024-02-21T05:36:54;9.00;99.90
52125;DHT22;38119;52.710;6.398;2024-02-21T05:39:20;9.00;99.90
52125;DHT22;38119;52.710;6.398;2024-02-21T05:41:48;9.00;99.90
52125;DHT22;38119;52.710;6.398;2024-02-21T05:44:13;9.00;99.90
52125;DHT22;38119;52.710;6.398;2024-02-21T05:46:39;9.00;99.90
52125;DHT22;38119;52.710;6.398;2024-02-21T05:49:05;9.00;99.90
52125;DHT22;38119;52.710;6.398;2024-02-21T05:51:34;9.10;99.90
52125;DHT22;38119;52.710;6.398;2024-02-21T05:54:00;9.00;99.90
52125;DHT22;38119;52.710;6.398;2024-02-21T05:56:26;9.10;99.90
52125;DHT22;38119;52.710;6.398;2024-02-21T05:58:52;9.10;99.90
52125;DHT22;38119;52.710;6.398;2024-02-21T06:01:18;9.00;99.90
52125;DHT22;38119;52.710;6.398;2024-02-21T06:03:44;9.00;99.90
52125;DHT22;38119;52.710;6.398;2024-02-21T06:06:09;9.00;99.90
52125;DHT22;38119;52.710;6.398;2024-02-21T06:08:35;9.00;99.90
52125;DHT22;38119;52.710;6.398;2024-02-21T06:11:00;9.00;99.90
52125;DHT22;38119;52.710;6.398;2024-02-21T06:13:26;9.00;99.90
52125;DHT22;38119;52.710;6.398;2024-02-21T06:15:53;9.00;99.90
52125;DHT22;38119;52.710;6.398;2024-02-21T06:18:19;9.00;99.90
52125;DHT22;38119;52.710;6.398;2024-02-21T06:20:45;9.00;99.90
52125;DHT22;38119;52.710;6.398;2024-02-21T06:23:15;9.00;99.90
52125;DHT22;38119;52.710;6.398;2024-02-21T06:25:42;9.00;99.90
52125;DHT22;38119;52.710;6.398;2024-02-21T06:28:08;9.00;99.90
52125;DHT22;38119;52.710;6.398;2024-02-21T06:30:33;9.00;99.90
52125;DHT22;38119;52.710;6.398;2024-02-21T06:32:59;9.00;99.90
52125;DHT22;38119;52.710;6.398;2024-02-21T06:35:25;9.00;99.90
52125;DHT22;38119;52.710;6.398;2024-02-21T06:37:54;9.00;99.90
52125;DHT22;38119;52.710;6.398;2024-02-21T06:40:21;9.00;99.90
52125;DHT22;38119;52.710;6.398;2024-02-21T06:42:47;9.00;99.90
52125;DHT22;38119;52.710;6.398;2024-02-21T06:45:13;9.00;99.90
52125;DHT22;38119;52.710;6.398;2024-02-21T06:47:38;9.00;99.90
52125;DHT22;38119;52.710;6.398;2024-02-21T06:50:04;9.00;99.90
52125;DHT22;38119;52.710;6.398;2024-02-21T06:52:30;9.00;99.90
52125;DHT22;38119;52.710;6.398;2024-02-21T06:54:56;9.00;99.90
52125;DHT22;38119;52.710;6.398;2024-02-21T06:57:22;8.90;99.90
52125;DHT22;38119;52.710;6.398;2024-02-21T06:59:48;9.00;99.90
52125;DHT22;38119;52.710;6.398;2024-02-21T07:02:14;9.00;99.90
52125;DHT22;38119;52.710;6.398;2024-02-21T07:04:39;9.00;99.90
52125;DHT22;38119;52.710;6.398;2024-02-21T07:07:05;9.00;99.90
52125;DHT22;38119;52.710;6.398;2024-02-21T07:09:30;9.00;99.90
52125;DHT22;38119;52.710;6.398;2024-02-21T07:12:00;8.90;99.90
52125;DHT22;38119;52.710;6.398;2024-02-21T07:14:25;9.00;99.90
52125;DHT22;38119;52.710;6.398;2024-02-21T07:16:51;8.90;99.90
52125;DHT22;38119;52.710;6.398;2024-02-21T07:19:17;9.00;99.90
52125;DHT22;38119;52.710;6.398;2024-02-21T07:21:42;8.90;99.90
52125;DHT22;38119;52.710;6.398;2024-02-21T07:24:08;8.90;99.90
52125;DHT22;38119;52.710;6.398;2024-02-21T07:26:34;8.90;99.90
52125;DHT22;38119;52.710;6.398;2024-02-21T07:29:00;8.90;99.90
52125;DHT22;38119;52.710;6.398;2024-02-21T07:31:25;8.90;99.90
52125;DHT22;38119;52.710;6.398;2024-02-21T07:33:51;8.90;99.90
52125;DHT22;38119;52.710;6.398;2024-02-21T07:36:29;8.90;99.90
52125;DHT22;38119;52.710;6.398;2024-02-21T07:38:55;8.90;99.90
52125;DHT22;38119;52.710;6.398;2024-02-21T07:41:21;8.90;99.90
52125;DHT22;38119;52.710;6.398;2024-02-21T07:43:47;8.90;99.90
52125;DHT22;38119;52.710;6.398;2024-02-21T07:46:14;8.90;99.90
52125;DHT22;38119;52.710;6.398;2024-02-21T07:48:39;8.90;99.90
52125;DHT22;38119;52.710;6.398;2024-02-21T07:51:05;9.00;99.90
52125;DHT22;38119;52.710;6.398;2024-02-21T07:53:30;8.90;99.90
52125;DHT22;38119;52.710;6.398;2024-02-21T07:55:56;8.90;99.90
52125;DHT22;38119;52.710;6.398;2024-02-21T07:58:22;8.90;99.90
52125;DHT22;38119;52.710;6.398;2024-02-21T08:00:47;8.90;99.90
52125;DHT22;38119;52.710;6.398;2024-02-21T08:03:13;8.90;99.90
52125;DHT22;38119;52.710;6.398;2024-02-21T08:05:40;8.90;99.90
52125;DHT22;38119;52.710;6.398;2024-02-21T08:08:06;8.90;99.90
52125;DHT22;38119;52.710;6.398;2024-02-21T08:10:33;8.80;99.90
52125;DHT22;38119;52.710;6.398;2024-02-21T08:12:59;8.80;99.90
52125;DHT22;38119;52.710;6.398;2024-02-21T08:15:25;8.80;99.90
52125;DHT22;38119;52.710;6.398;2024-02-21T08:17:55;8.80;99.90
52125;DHT22;38119;52.710;6.398;2024-02-21T08:20:24;8.80;99.90
52125;DHT22;38119;52.710;6.398;2024-02-21T08:22:50;8.80;99.90
52125;DHT22;38119;52.710;6.398;2024-02-21T08:25:16;8.80;99.90
52125;DHT22;38119;52.710;6.398;2024-02-21T08:27:41;8.80;99.90
52125;DHT22;38119;52.710;6.398;2024-02-21T08:30:07;8.80;99.90
52125;DHT22;38119;52.710;6.398;2024-02-21T08:32:33;8.90;99.90
52125;DHT22;38119;52.710;6.398;2024-02-21T08:35:01;8.90;99.90
52125;DHT22;38119;52.710;6.398;2024-02-21T08:37:30;8.90;99.90
52125;DHT22;38119;52.710;6.398;2024-02-21T08:39:55;8.90;99.90
52125;DHT22;38119;52.710;6.398;2024-02-21T08:42:21;8.90;99.90
52125;DHT22;38119;52.710;6.398;2024-02-21T08:44:46;8.90;99.90
52125;DHT22;38119;52.710;6.398;2024-02-21T08:47:12;9.00;99.90
52125;DHT22;38119;52.710;6.398;2024-02-21T08:49:38;9.00;99.90
52125;DHT22;38119;52.710;6.398;2024-02-21T08:52:04;9.00;99.90
52125;DHT22;38119;52.710;6.398;2024-02-21T08:54:31;9.00;99.90
52125;DHT22;38119;52.710;6.398;2024-02-21T08:56:58;9.00;99.90
52125;DHT22;38119;52.710;6.398;2024-02-21T08:59:23;9.00;99.90
52125;DHT22;38119;52.710;6.398;2024-02-21T09:01:51;9.00;99.90
52125;DHT22;38119;52.710;6.398;2024-02-21T09:04:17;9.00;99.90
52125;DHT22;38119;52.710;6.398;2024-02-21T09:06:43;9.10;99.90
52125;DHT22;38119;52.710;6.398;2024-02-21T09:09:10;9.00;99.90
52125;DHT22;38119;52.710;6.398;2024-02-21T09:11:36;9.10;99.90
52125;DHT22;38119;52.710;6.398;2024-02-21T09:14:01;9.10;99.90
52125;DHT22;38119;52.710;6.398;2024-02-21T09:16:32;9.10;99.90
52125;DHT22;38119;52.710;6.398;2024-02-21T09:18:58;9.10;99.90
52125;DHT22;38119;52.710;6.398;2024-02-21T09:21:24;9.20;99.90
52125;DHT22;38119;52.710;6.398;2024-02-21T09:23:50;9.20;99.90
52125;DHT22;38119;52.710;6.398;2024-02-21T09:26:15;9.20;99.90
52125;DHT22;38119;52.710;6.398;2024-02-21T09:28:43;9.20;99.90
52125;DHT22;38119;52.710;6.398;2024-02-21T09:31:09;9.20;99.90
52125;DHT22;38119;52.710;6.398;2024-02-21T09:33:35;9.20;99.90
52125;DHT22;38119;52.710;6.398;2024-02-21T09:36:01;9.30;99.90
52125;DHT22;38119;52.710;6.398;2024-02-21T09:38:27;9.30;99.90
52125;DHT22;38119;52.710;6.398;2024-02-21T09:41:13;9.30;99.90
52125;DHT22;38119;52.710;6.398;2024-02-21T09:43:41;9.30;99.90
52125;DHT22;38119;52.710;6.398;2024-02-21T09:46:08;9.30;99.90
52125;DHT22;38119;52.710;6.398;2024-02-21T09:49:10;9.30;99.90
52125;DHT22;38119;52.710;6.398;2024-02-21T09:51:40;9.30;99.90
52125;DHT22;38119;52.710;6.398;2024-02-21T09:54:07;9.30;99.90
52125;DHT22;38119;52.710;6.398;2024-02-21T09:56:33;9.30;99.90
52125;DHT22;38119;52.710;6.398;2024-02-21T09:58:59;9.30;99.90
52125;DHT22;38119;52.710;6.398;2024-02-21T10:01:28;9.30;99.90
52125;DHT22;38119;52.710;6.398;2024-02-21T10:03:54;9.30;99.90
52125;DHT22;38119;52.710;6.398;2024-02-21T10:06:19;9.40;99.90
52125;DHT22;38119;52.710;6.398;2024-02-21T10:08:52;9.30;99.90
52125;DHT22;38119;52.710;6.398;2024-02-21T10:11:24;9.40;99.90
52125;DHT22;38119;52.710;6.398;2024-02-21T10:13:50;9.40;99.90
52125;DHT22;38119;52.710;6.398;2024-02-21T10:16:16;9.30;99.90
52125;DHT22;38119;52.710;6.398;2024-02-21T10:18:42;9.30;99.90
52125;DHT22;38119;52.710;6.398;2024-02-21T10:21:08;9.30;99.90
52125;DHT22;38119;52.710;6.398;2024-02-21T10:23:44;9.30;99.90
52125;DHT22;38119;52.710;6.398;2024-02-21T10:26:10;9.40;99.90
52125;DHT22;38119;52.710;6.398;2024-02-21T10:28:37;9.40;99.90
52125;DHT22;38119;52.710;6.398;2024-02-21T10:31:07;9.40;99.90
52125;DHT22;38119;52.710;6.398;2024-02-21T10:33:33;9.50;99.90
52125;DHT22;38119;52.710;6.398;2024-02-21T10:36:09;9.50;99.90
52125;DHT22;38119;52.710;6.398;2024-02-21T10:38:39;9.50;99.90
52125;DHT22;38119;52.710;6.398;2024-02-21T10:41:05;9.60;99.90
52125;DHT22;38119;52.710;6.398;2024-02-21T10:43:38;9.60;99.90
52125;DHT22;38119;52.710;6.398;2024-02-21T10:46:08;9.60;99.90
52125;DHT22;38119;52.710;6.398;2024-02-21T10:48:45;9.60;99.90
52125;DHT22;38119;52.710;6.398;2024-02-21T10:51:19;9.60;99.90
52125;DHT22;38119;52.710;6.398;2024-02-21T10:53:58;9.60;99.90
52125;DHT22;38119;52.710;6.398;2024-02-21T10:56:34;9.70;99.90
52125;DHT22;38119;52.710;6.398;2024-02-21T10:59:04;9.60;99.90
52125;DHT22;38119;52.710;6.398;2024-02-21T11:01:30;9.60;99.90
52125;DHT22;38119;52.710;6.398;2024-02-21T11:04:05;9.70;99.90
52125;DHT22;38119;52.710;6.398;2024-02-21T11:06:32;9.60;99.90
52125;DHT22;38119;52.710;6.398;2024-02-21T11:09:10;9.60;99.90
52125;DHT22;38119;52.710;6.398;2024-02-21T11:11:39;9.60;99.90
52125;DHT22;38119;52.710;6.398;2024-02-21T11:14:09;9.70;99.90
52125;DHT22;38119;52.710;6.398;2024-02-21T11:16:41;9.70;99.90
52125;DHT22;38119;52.710;6.398;2024-02-21T11:19:25;9.70;99.90
52125;DHT22;38119;52.710;6.398;2024-02-21T11:21:51;9.70;99.90
52125;DHT22;38119;52.710;6.398;2024-02-21T11:24:27;9.70;99.90
52125;DHT22;38119;52.710;6.398;2024-02-21T11:26:54;9.70;99.90
52125;DHT22;38119;52.710;6.398;2024-02-21T11:29:24;9.70;99.90
52125;DHT22;38119;52.710;6.398;2024-02-21T11:31:53;9.80;99.90
52125;DHT22;38119;52.710;6.398;2024-02-21T11:34:19;9.70;99.90
52125;DHT22;38119;52.710;6.398;2024-02-21T11:36:52;9.80;99.90
52125;DHT22;38119;52.710;6.398;2024-02-21T11:41:46;9.70;99.90
52125;DHT22;38119;52.710;6.398;2024-02-21T11:44:12;9.80;99.90
52125;DHT22;38119;52.710;6.398;2024-02-21T11:46:38;9.70;99.90
52125;DHT22;38119;52.710;6.398;2024-02-21T11:49:04;9.70;99.90
52125;DHT22;38119;52.710;6.398;2024-02-21T11:51:29;9.70;99.90
52125;DHT22;38119;52.710;6.398;2024-02-21T11:53:55;9.70;99.90
52125;DHT22;38119;52.710;6.398;2024-02-21T11:56:21;9.80;99.90
52125;DHT22;38119;52.710;6.398;2024-02-21T11:58:48;9.80;99.90
52125;DHT22;38119;52.710;6.398;2024-02-21T12:01:14;9.80;99.90
52125;DHT22;38119;52.710;6.398;2024-02-21T12:03:41;9.70;99.90
52125;DHT22;38119;52.710;6.398;2024-02-21T12:06:07;9.80;99.90
52125;DHT22;38119;52.710;6.398;2024-02-21T12:08:43;9.70;99.90
52125;DHT22;38119;52.710;6.398;2024-02-21T12:11:22;9.70;99.90
52125;DHT22;38119;52.710;6.398;2024-02-21T12:14:01;9.70;99.90
52125;DHT22;38119;52.710;6.398;2024-02-21T12:16:33;9.80;99.90
52125;DHT22;38119;52.710;6.398;2024-02-21T12:19:00;9.70;99.90
52125;DHT22;38119;52.710;6.398;2024-02-21T12:21:30;9.70;99.90
52125;DHT22;38119;52.710;6.398;2024-02-21T12:23:58;9.70;99.90
52125;DHT22;38119;52.710;6.398;2024-02-21T12:26:25;9.80;99.90
52125;DHT22;38119;52.710;6.398;2024-02-21T12:28:51;9.80;99.90
52125;DHT22;38119;52.710;6.398;2024-02-21T12:31:16;9.80;99.90
52125;DHT22;38119;52.710;6.398;2024-02-21T12:33:43;9.70;99.90
52125;DHT22;38119;52.710;6.398;2024-02-21T12:36:09;9.70;99.90
52125;DHT22;38119;52.710;6.398;2024-02-21T12:38:35;9.70;99.90
52125;DHT22;38119;52.710;6.398;2024-02-21T12:41:01;9.70;99.90
52125;DHT22;38119;52.710;6.398;2024-02-21T12:43:27;9.70;99.90
52125;DHT22;38119;52.710;6.398;2024-02-21T12:45:53;9.70;99.90
52125;DHT22;38119;52.710;6.398;2024-02-21T12:48:18;9.70;99.90
52125;DHT22;38119;52.710;6.398;2024-02-21T12:50:50;9.70;99.90
52125;DHT22;38119;52.710;6.398;2024-02-21T12:53:19;9.70;99.90
52125;DHT22;38119;52.710;6.398;2024-02-21T12:55:50;9.80;99.90
52125;DHT22;38119;52.710;6.398;2024-02-21T12:58:15;9.70;99.90
52125;DHT22;38119;52.710;6.398;2024-02-21T13:00:42;9.80;99.90
52125;DHT22;38119;52.710;6.398;2024-02-21T13:03:08;9.80;99.90
52125;DHT22;38119;52.710;6.398;2024-02-21T13:05:36;9.80;99.90
52125;DHT22;38119;52.710;6.398;2024-02-21T13:08:01;9.80;99.90
52125;DHT22;38119;52.710;6.398;2024-02-21T13:10:27;9.80;99.90
52125;DHT22;38119;52.710;6.398;2024-02-21T13:12:53;9.80;99.90
52125;DHT22;38119;52.710;6.398;2024-02-21T13:15:20;9.80;99.90
52125;DHT22;38119;52.710;6.398;2024-02-21T13:17:45;9.80;99.90
52125;DHT22;38119;52.710;6.398;2024-02-21T13:20:11;9.80;99.90
52125;DHT22;38119;52.710;6.398;2024-02-21T13:22:37;9.90;99.90
52125;DHT22;38119;52.710;6.398;2024-02-21T13:25:04;9.90;99.90
52125;DHT22;38119;52.710;6.398;2024-02-21T13:27:30;9.90;99.90
52125;DHT22;38119;52.710;6.398;2024-02-21T13:29:56;9.90;99.90
52125;DHT22;38119;52.710;6.398;2024-02-21T13:32:21;10.00;99.90
52125;DHT22;38119;52.710;6.398;2024-02-21T13:34:47;9.90;99.90
52125;DHT22;38119;52.710;6.398;2024-02-21T13:37:13;9.90;99.90
52125;DHT22;38119;52.710;6.398;2024-02-21T13:39:40;10.00;99.90
52125;DHT22;38119;52.710;6.398;2024-02-21T13:42:06;10.00;99.90
52125;DHT22;38119;52.710;6.398;2024-02-21T13:44:32;9.90;99.90
52125;DHT22;38119;52.710;6.398;2024-02-21T13:46:58;10.00;99.90
52125;DHT22;38119;52.710;6.398;2024-02-21T13:49:23;9.90;99.90
52125;DHT22;38119;52.710;6.398;2024-02-21T13:51:52;9.90;99.90
52125;DHT22;38119;52.710;6.398;2024-02-21T13:54:26;9.90;99.90
52125;DHT22;38119;52.710;6.398;2024-02-21T13:57:10;9.90;99.90
52125;DHT22;38119;52.710;6.398;2024-02-21T13:59:35;9.90;99.90
52125;DHT22;38119;52.710;6.398;2024-02-21T14:02:01;9.80;99.90
52125;DHT22;38119;52.710;6.398;2024-02-21T14:04:26;9.80;99.90
52125;DHT22;38119;52.710;6.398;2024-02-21T14:06:52;9.80;99.90
52125;DHT22;38119;52.710;6.398;2024-02-21T14:09:19;9.90;99.90
52125;DHT22;38119;52.710;6.398;2024-02-21T14:11:45;9.80;99.90
52125;DHT22;38119;52.710;6.398;2024-02-21T14:14:11;9.80;99.90
52125;DHT22;38119;52.710;6.398;2024-02-21T14:16:36;9.80;99.90
52125;DHT22;38119;52.710;6.398;2024-02-21T14:19:02;9.80;99.90
52125;DHT22;38119;52.710;6.398;2024-02-21T14:21:28;9.90;99.90
52125;DHT22;38119;52.710;6.398;2024-02-21T14:23:54;9.90;99.90
52125;DHT22;38119;52.710;6.398;2024-02-21T14:26:20;9.90;99.90
52125;DHT22;38119;52.710;6.398;2024-02-21T14:28:47;9.90;99.90
52125;DHT22;38119;52.710;6.398;2024-02-21T14:31:12;9.90;99.90
52125;DHT22;38119;52.710;6.398;2024-02-21T14:33:38;9.80;99.90
52125;DHT22;38119;52.710;6.398;2024-02-21T14:36:04;9.80;99.90
52125;DHT22;38119;52.710;6.398;2024-02-21T14:38:31;9.80;99.90
52125;DHT22;38119;52.710;6.398;2024-02-21T14:40:56;9.80;99.90
52125;DHT22;38119;52.710;6.398;2024-02-21T14:43:22;9.80;99.90
52125;DHT22;38119;52.710;6.398;2024-02-21T14:45:48;9.80;99.90
52125;DHT22;38119;52.710;6.398;2024-02-21T14:48:14;9.80;99.90
52125;DHT22;38119;52.710;6.398;2024-02-21T14:50:40;9.70;99.90
52125;DHT22;38119;52.710;6.398;2024-02-21T14:53:06;9.80;99.90
52125;DHT22;38119;52.710;6.398;2024-02-21T14:55:33;9.80;99.90
52125;DHT22;38119;52.710;6.398;2024-02-21T14:57:59;9.80;99.90
52125;DHT22;38119;52.710;6.398;2024-02-21T15:00:26;9.70;99.90
52125;DHT22;38119;52.710;6.398;2024-02-21T15:02:56;9.70;99.90
52125;DHT22;38119;52.710;6.398;2024-02-21T15:05:23;9.80;99.90
52125;DHT22;38119;52.710;6.398;2024-02-21T15:07:51;9.70;99.90
52125;DHT22;38119;52.710;6.398;2024-02-21T15:10:18;9.80;99.90
52125;DHT22;38119;52.710;6.398;2024-02-21T15:12:47;9.70;99.90
52125;DHT22;38119;52.710;6.398;2024-02-21T15:15:13;9.70;99.90
52125;DHT22;38119;52.710;6.398;2024-02-21T15:17:39;9.70;99.90
52125;DHT22;38119;52.710;6.398;2024-02-21T15:20:06;9.80;99.90
52125;DHT22;38119;52.710;6.398;2024-02-21T15:22:36;9.70;99.90
52125;DHT22;38119;52.710;6.398;2024-02-21T15:25:02;9.70;99.90
52125;DHT22;38119;52.710;6.398;2024-02-21T15:27:30;9.70;99.90
52125;DHT22;38119;52.710;6.398;2024-02-21T15:29:55;9.70;99.90
52125;DHT22;38119;52.710;6.398;2024-02-21T15:32:23;9.80;99.90
52125;DHT22;38119;52.710;6.398;2024-02-21T15:34:48;9.70;99.90
52125;DHT22;38119;52.710;6.398;2024-02-21T15:37:14;9.80;99.90
52125;DHT22;38119;52.710;6.398;2024-02-21T15:39:42;9.70;99.90
52125;DHT22;38119;52.710;6.398;2024-02-21T15:42:11;9.80;99.90
52125;DHT22;38119;52.710;6.398;2024-02-21T15:44:37;9.80;99.90